Time;durP1;ratioP1;P1;durP2;ratioP2;P2;SDS_P1;SDS_P2;PMS_P1;PMS_P2;Temp;Humidity;BMP_temperature;BMP_pressure;BME280_temperature;BME280_humidity;BME280_pressure;Samples;Min_cycle;Max_cycle;Signal;HPM_P1;HPM_P2
2021/10/11 00:01:58;;;;;;;981.97;898.80;;;7.60;99.90;;;;;;5033895;28;20459;-85
2021/10/11 00:04:27;;;;;;;979.77;896.97;;;7.50;99.90;;;;;;5033900;28;20463;-85
2021/10/11 00:06:54;;;;;;;981.03;899.53;;;7.40;99.90;;;;;;5033759;28;20871;-84
2021/10/11 00:09:21;;;;;;;982.07;899.50;;;7.40;99.90;;;;;;5033703;28;20448;-85
2021/10/11 00:11:51;;;;;;;986.73;904.00;;;7.30;99.90;;;;;;5033767;28;20455;-84
2021/10/11 00:14:34;;;;;;;988.47;906.50;;;7.20;99.90;;;;;;5033363;28;20483;-85
2021/10/11 00:17:04;;;;;;;978.23;899.90;;;7.10;99.90;;;;;;5032998;28;20448;-85
2021/10/11 00:19:35;;;;;;;990.93;908.47;;;7.20;99.90;;;;;;5033828;28;20463;-84
2021/10/11 00:22:03;;;;;;;990.27;908.63;;;7.10;99.90;;;;;;5020347;28;20933;-85
2021/10/11 00:24:32;;;;;;;988.33;908.07;;;7.00;99.90;;;;;;5013686;28;20453;-84
2021/10/11 00:27:01;;;;;;;994.80;911.47;;;7.10;99.90;;;;;;5013544;28;20453;-84
2021/10/11 00:29:28;;;;;;;987.50;904.53;;;7.10;99.90;;;;;;5012485;28;20449;-85
2021/10/11 00:31:57;;;;;;;986.07;901.67;;;7.20;99.90;;;;;;5013863;28;20484;-84
2021/10/11 00:34:24;;;;;;;985.20;901.60;;;7.30;99.90;;;;;;5013527;28;21015;-85
2021/10/11 00:36:51;;;;;;;989.30;904.80;;;7.40;99.90;;;;;;5013408;28;20468;-85
2021/10/11 00:39:38;;;;;;;990.33;905.33;;;7.60;99.90;;;;;;5013276;28;20446;-85
2021/10/11 00:42:12;;;;;;;999.10;912.53;;;7.70;99.90;;;;;;5012667;28;20548;-85
2021/10/11 00:44:43;;;;;;;1004.27;920.47;;;7.90;99.90;;;;;;5012239;28;20464;-84
2021/10/11 00:47:15;;;;;;;996.87;912.60;;;8.00;99.90;;;;;;5013574;28;20875;-84
2021/10/11 00:49:44;;;;;;;998.67;912.67;;;8.10;99.90;;;;;;5013142;28;21025;-84
2021/10/11 00:52:13;;;;;;;983.77;902.77;;;8.20;99.90;;;;;;5013239;28;20476;-84
2021/10/11 00:54:55;;;;;;;981.67;900.07;;;8.40;99.90;;;;;;5013181;28;20547;-84
2021/10/11 00:57:24;;;;;;;973.67;894.27;;;8.50;99.90;;;;;;5013022;28;20567;-84
2021/10/11 00:59:55;;;;;;;973.40;893.33;;;8.60;99.90;;;;;;5012065;28;20461;-84
2021/10/11 01:02:26;;;;;;;980.87;901.83;;;8.70;99.90;;;;;;5013063;28;20500;-85
2021/10/11 01:04:59;;;;;;;965.73;890.07;;;8.90;99.90;;;;;;5013281;28;20454;-84
2021/10/11 01:07:28;;;;;;;978.93;902.90;;;8.90;99.90;;;;;;5013091;28;20945;-85
2021/10/11 01:10:00;;;;;;;971.60;897.23;;;8.80;99.90;;;;;;5012194;28;20962;-84
2021/10/11 01:12:32;;;;;;;963.53;890.27;;;8.90;99.90;;;;;;5012908;28;20461;-85
2021/10/11 01:15:07;;;;;;;968.07;894.07;;;9.10;99.90;;;;;;5012011;28;20457;-84
2021/10/11 01:17:35;;;;;;;958.87;886.10;;;9.00;99.90;;;;;;5013064;28;20456;-84
2021/10/11 01:20:12;;;;;;;954.97;882.17;;;9.20;99.90;;;;;;5012979;28;20525;-84
2021/10/11 01:22:42;;;;;;;957.30;884.40;;;9.40;99.90;;;;;;5031237;28;20998;-84
2021/10/11 01:25:11;;;;;;;950.27;878.77;;;9.30;99.90;;;;;;5032788;28;20467;-84
2021/10/11 01:27:39;;;;;;;948.97;877.47;;;9.60;99.90;;;;;;5032745;28;20843;-84
2021/10/11 01:30:12;;;;;;;938.17;868.77;;;9.40;99.90;;;;;;5031680;28;20471;-85
2021/10/11 01:32:45;;;;;;;942.10;874.40;;;9.60;99.90;;;;;;5032644;28;20456;-84
2021/10/11 01:35:15;;;;;;;936.13;867.47;;;9.60;99.90;;;;;;5032620;28;20463;-84
2021/10/11 01:37:49;;;;;;;927.37;859.70;;;9.70;99.90;;;;;;5032378;28;20554;-85
2021/10/11 01:40:19;;;;;;;913.63;846.47;;;9.70;99.90;;;;;;5032608;28;20456;-84
2021/10/11 01:42:45;;;;;;;949.20;874.20;;;9.70;99.90;;;;;;5032511;28;20940;-85
2021/10/11 01:45:23;;;;;;;983.60;899.33;;;9.80;99.90;;;;;;5031392;28;20884;-85
2021/10/11 01:48:05;;;;;;;1002.07;912.17;;;10.10;99.90;;;;;;5032787;28;20847;-85
2021/10/11 01:50:51;;;;;;;996.13;904.60;;;10.20;99.90;;;;;;5032354;28;20480;-84
2021/10/11 01:53:26;;;;;;;1014.87;915.53;;;10.30;99.90;;;;;;5032328;28;20472;-85
2021/10/11 01:55:55;;;;;;;1006.63;907.30;;;10.40;99.90;;;;;;5032397;28;20818;-85
2021/10/11 01:58:24;;;;;;;1022.13;918.43;;;10.40;99.90;;;;;;5032538;28;20444;-86
2021/10/11 02:00:53;;;;;;;1027.27;923.60;;;10.40;99.90;;;;;;5031458;28;21017;-86
2021/10/11 02:03:29;;;;;;;1022.13;917.47;;;10.40;99.90;;;;;;5027880;28;20548;-84
2021/10/11 02:06:04;;;;;;;1034.10;928.43;;;10.40;99.90;;;;;;5025440;28;20965;-85
2021/10/11 02:08:35;;;;;;;1022.60;922.63;;;10.40;99.90;;;;;;5032489;28;20546;-85
2021/10/11 02:11:12;;;;;;;1023.57;921.07;;;10.60;99.90;;;;;;5032132;28;20476;-85
2021/10/11 02:13:53;;;;;;;1016.03;912.00;;;10.60;99.90;;;;;;5032419;28;20456;-85
2021/10/11 02:16:29;;;;;;;1018.67;920.13;;;10.60;99.90;;;;;;5031136;28;20452;-85
2021/10/11 02:18:59;;;;;;;1016.83;913.70;;;10.60;99.90;;;;;;5032547;28;20488;-85
2021/10/11 02:21:29;;;;;;;1021.73;918.17;;;10.80;99.90;;;;;;5025892;28;20969;-84
2021/10/11 02:24:05;;;;;;;1024.13;922.17;;;10.60;99.90;;;;;;5016229;28;20456;-85
2021/10/11 02:26:42;;;;;;;1025.87;922.77;;;10.60;99.90;;;;;;5016194;28;20543;-84
2021/10/11 02:29:15;;;;;;;1030.40;926.70;;;10.60;99.90;;;;;;5015974;28;20511;-85
2021/10/11 02:31:50;;;;;;;1018.40;915.90;;;10.70;99.90;;;;;;5014751;28;20864;-85
2021/10/11 02:34:19;;;;;;;1020.17;919.57;;;10.70;99.90;;;;;;5015954;28;20540;-85
2021/10/11 02:37:10;;;;;;;1027.03;921.83;;;10.70;99.90;;;;;;5015834;28;20507;-85
2021/10/11 02:39:43;;;;;;;1032.43;928.93;;;10.70;99.90;;;;;;5011592;28;20465;-85
2021/10/11 02:42:14;;;;;;;1024.57;921.53;;;10.70;99.90;;;;;;5015799;28;20485;-85
2021/10/11 02:44:45;;;;;;;1029.37;924.40;;;10.80;99.90;;;;;;5014594;28;20461;-85
2021/10/11 02:47:18;;;;;;;1020.50;916.50;;;10.80;99.90;;;;;;5015635;28;20449;-85
2021/10/11 02:49:54;;;;;;;1036.67;930.23;;;10.90;99.90;;;;;;5015737;28;20452;-85
2021/10/11 02:52:33;;;;;;;1025.80;920.43;;;10.80;99.90;;;;;;5015291;28;20497;-85
2021/10/11 02:55:05;;;;;;;1019.53;912.90;;;10.90;99.90;;;;;;5015324;28;20464;-85
2021/10/11 02:57:37;;;;;;;1020.83;919.57;;;10.90;99.90;;;;;;5015313;28;20976;-84
2021/10/11 03:00:08;;;;;;;1031.90;923.83;;;10.80;99.90;;;;;;5014174;28;20456;-83
2021/10/11 03:02:35;;;;;;;1024.80;920.40;;;10.90;99.90;;;;;;5015411;28;20457;-85
2021/10/11 03:05:09;;;;;;;1026.03;920.27;;;10.90;99.90;;;;;;5015540;28;20453;-85
2021/10/11 03:07:37;;;;;;;1025.37;917.10;;;10.90;99.90;;;;;;5015113;28;20539;-85
2021/10/11 03:10:05;;;;;;;1029.03;924.47;;;11.00;99.90;;;;;;5015099;28;20457;-85
2021/10/11 03:12:40;;;;;;;1012.73;911.97;;;11.00;99.90;;;;;;5014938;28;20492;-84
2021/10/11 03:15:08;;;;;;;1015.20;914.90;;;10.90;99.90;;;;;;5013856;28;20464;-84
2021/10/11 03:17:41;;;;;;;1018.93;919.43;;;11.00;99.90;;;;;;5015005;28;20497;-85
2021/10/11 03:20:09;;;;;;;1021.30;920.17;;;11.00;99.90;;;;;;5014960;28;20462;-84
2021/10/11 03:22:37;;;;;;;1022.03;922.57;;;10.90;99.90;;;;;;5014546;28;20444;-85
2021/10/11 03:25:13;;;;;;;1016.53;916.37;;;11.00;99.90;;;;;;5034715;28;20491;-84
2021/10/11 03:27:42;;;;;;;1017.00;917.60;;;11.10;99.90;;;;;;5034467;28;20955;-85
2021/10/11 03:30:18;;;;;;;1018.20;918.87;;;11.10;99.90;;;;;;5033512;28;20457;-84
2021/10/11 03:32:45;;;;;;;1008.13;908.73;;;11.00;99.90;;;;;;5033558;28;20541;-85
2021/10/11 03:35:12;;;;;;;1008.70;911.07;;;11.00;99.90;;;;;;5034459;28;20864;-85
2021/10/11 03:37:40;;;;;;;1005.07;909.53;;;11.10;99.90;;;;;;5034424;28;20452;-84
2021/10/11 03:40:10;;;;;;;989.53;895.60;;;11.20;99.90;;;;;;5034515;28;20464;-85
2021/10/11 03:42:41;;;;;;;986.53;896.53;;;11.00;99.90;;;;;;5034231;28;21217;-85
2021/10/11 03:45:09;;;;;;;989.30;899.97;;;11.10;99.90;;;;;;5033200;28;20448;-85
2021/10/11 03:47:39;;;;;;;994.97;902.77;;;11.20;99.90;;;;;;5034209;28;20452;-84
2021/10/11 03:50:07;;;;;;;984.07;894.70;;;11.00;99.90;;;;;;5034047;28;20445;-84
2021/10/11 03:52:34;;;;;;;970.70;886.63;;;11.20;99.90;;;;;;5033807;28;20519;-84
2021/10/11 03:55:04;;;;;;;976.63;890.27;;;11.20;99.90;;;;;;5034239;28;20487;-84
2021/10/11 03:57:35;;;;;;;960.87;876.10;;;11.20;99.90;;;;;;5033718;28;20484;-85
2021/10/11 04:00:06;;;;;;;956.80;870.30;;;11.20;99.90;;;;;;5032769;28;20457;-85
2021/10/11 04:02:33;;;;;;;955.13;869.33;;;11.40;99.90;;;;;;5033787;28;20531;-78
2021/10/11 04:05:00;;;;;;;951.53;867.10;;;11.30;99.90;;;;;;5031759;28;20528;-82
2021/10/11 04:07:27;;;;;;;957.67;870.10;;;11.30;99.90;;;;;;5033844;28;20448;-78
2021/10/11 04:09:58;;;;;;;958.80;874.50;;;11.40;99.90;;;;;;5033614;28;20955;-85
2021/10/11 04:12:49;;;;;;;956.90;873.87;;;11.30;99.90;;;;;;5033525;28;20629;-90
2021/10/11 04:15:16;;;;;;;947.90;864.33;;;11.40;99.90;;;;;;5032485;28;20551;-81
2021/10/11 04:17:43;;;;;;;959.17;875.20;;;11.40;99.90;;;;;;5033883;28;20454;-84
2021/10/11 04:20:10;;;;;;;959.43;873.50;;;11.40;99.90;;;;;;5033916;28;20958;-84
2021/10/11 04:22:40;;;;;;;958.20;873.50;;;11.30;99.90;;;;;;5015257;28;20815;-84
2021/10/11 04:25:09;;;;;;;956.20;868.30;;;11.40;99.90;;;;;;5013907;28;20489;-84
2021/10/11 04:27:39;;;;;;;958.30;873.67;;;11.30;99.90;;;;;;5013723;28;20963;-84
2021/10/11 04:30:11;;;;;;;953.37;866.97;;;11.40;99.90;;;;;;5012729;28;21004;-84
2021/10/11 04:32:38;;;;;;;948.77;863.40;;;11.30;99.90;;;;;;5013576;28;20496;-84
2021/10/11 04:35:08;;;;;;;957.17;870.67;;;11.40;99.90;;;;;;5013439;28;20461;-82
2021/10/11 04:37:39;;;;;;;954.73;870.70;;;11.30;99.90;;;;;;5013680;28;20457;-86
2021/10/11 04:40:07;;;;;;;961.07;873.13;;;11.50;99.90;;;;;;5013681;28;20810;-84
2021/10/11 04:42:37;;;;;;;957.53;868.93;;;11.30;99.90;;;;;;4979132;28;20862;-84
2021/10/11 04:45:06;;;;;;;964.50;874.70;;;11.40;99.90;;;;;;5012306;28;20445;-85
2021/10/11 04:47:41;;;;;;;961.20;871.17;;;11.40;99.90;;;;;;5013636;28;20536;-85
2021/10/11 04:50:08;;;;;;;965.20;876.90;;;11.50;99.90;;;;;;5013447;28;20472;-84
2021/10/11 04:52:35;;;;;;;962.30;874.20;;;11.40;99.90;;;;;;5013297;28;20484;-83
2021/10/11 04:55:02;;;;;;;956.57;868.93;;;11.40;99.90;;;;;;5013211;28;20453;-83
2021/10/11 04:57:31;;;;;;;959.57;871.30;;;11.40;99.90;;;;;;5013041;28;20477;-83
2021/10/11 04:59:58;;;;;;;952.77;866.90;;;11.40;99.90;;;;;;5011982;28;20457;-85
2021/10/11 05:02:25;;;;;;;963.20;874.00;;;11.50;99.90;;;;;;5013346;28;20511;-83
2021/10/11 05:04:54;;;;;;;960.93;874.37;;;11.40;99.90;;;;;;5024813;28;20491;-84
2021/10/11 05:07:23;;;;;;;948.87;865.43;;;11.40;99.90;;;;;;5013159;28;20457;-85
2021/10/11 05:09:50;;;;;;;945.47;861.30;;;11.40;99.90;;;;;;5013287;28;20500;-81
2021/10/11 05:12:41;;;;;;;950.47;865.37;;;11.30;99.90;;;;;;5012919;28;21004;-85
2021/10/11 05:15:33;;;;;;;944.57;862.27;;;11.40;99.90;;;;;;4951520;28;20535;-85
2021/10/11 05:18:00;;;;;;;944.73;859.83;;;11.40;99.90;;;;;;4986621;28;20461;-83
2021/10/11 05:20:32;;;;;;;951.33;868.63;;;11.40;99.90;;;;;;5013263;28;20804;-83
2021/10/11 05:22:59;;;;;;;956.90;873.80;;;11.40;99.90;;;;;;5032622;28;20993;-84
2021/10/11 05:25:30;;;;;;;970.50;886.13;;;11.50;99.90;;;;;;5033036;28;20460;-83
2021/10/11 05:27:58;;;;;;;949.33;868.17;;;11.40;99.90;;;;;;5032788;28;20464;-83
2021/10/11 05:30:25;;;;;;;953.90;868.07;;;11.40;99.90;;;;;;5031496;28;20460;-83
2021/10/11 05:32:56;;;;;;;948.80;864.93;;;11.50;99.90;;;;;;5032702;28;20495;-84
2021/10/11 05:35:23;;;;;;;951.77;868.77;;;11.60;99.90;;;;;;5032565;28;20460;-84
2021/10/11 05:37:56;;;;;;;957.37;875.03;;;11.40;99.90;;;;;;5032675;28;20488;-85
2021/10/11 05:40:23;;;;;;;955.37;874.03;;;11.50;99.90;;;;;;5031241;28;20449;-85
2021/10/11 05:42:49;;;;;;;951.80;869.87;;;11.50;99.90;;;;;;5032496;28;20539;-83
2021/10/11 05:45:20;;;;;;;946.90;864.20;;;11.40;99.90;;;;;;5031561;28;20522;-85
2021/10/11 05:47:54;;;;;;;937.37;857.60;;;11.50;99.90;;;;;;5032826;28;20488;-85
2021/10/11 05:50:21;;;;;;;948.60;870.00;;;11.60;99.90;;;;;;5032551;28;20484;-84
2021/10/11 05:52:48;;;;;;;951.40;873.17;;;11.40;99.90;;;;;;5023567;28;20481;-85
2021/10/11 05:55:32;;;;;;;947.20;869.87;;;11.60;99.90;;;;;;5013610;28;20464;-84
2021/10/11 05:58:03;;;;;;;946.43;871.43;;;11.60;99.90;;;;;;5016386;28;20480;-85
2021/10/11 06:00:30;;;;;;;934.53;863.03;;;11.50;99.90;;;;;;5015453;28;20453;-88
2021/10/11 06:03:00;;;;;;;944.30;868.33;;;11.50;99.90;;;;;;5016775;28;20459;-88
2021/10/11 06:05:27;;;;;;;943.07;869.37;;;11.40;99.90;;;;;;5016513;28;20460;-89
2021/10/11 06:07:57;;;;;;;937.67;865.63;;;11.50;99.90;;;;;;5016310;28;20543;-87
2021/10/11 06:10:27;;;;;;;926.20;855.77;;;11.40;99.90;;;;;;5016340;28;20449;-87
2021/10/11 06:12:54;;;;;;;929.47;857.47;;;11.40;99.90;;;;;;5016117;28;20484;-86
2021/10/11 06:15:32;;;;;;;928.83;857.10;;;11.40;99.90;;;;;;5015201;28;20515;-86
2021/10/11 06:17:59;;;;;;;934.83;860.07;;;11.50;99.90;;;;;;5016150;28;20518;-85
2021/10/11 06:20:26;;;;;;;933.50;857.90;;;11.60;99.90;;;;;;5016222;28;20550;-87
2021/10/11 06:22:53;;;;;;;939.80;864.93;;;11.50;99.90;;;;;;5036047;28;20460;-86
2021/10/11 06:25:19;;;;;;;940.07;866.67;;;11.50;99.90;;;;;;5035757;28;20502;-78
2021/10/11 06:28:06;;;;;;;930.77;858.87;;;11.40;99.90;;;;;;5035453;28;20507;-86
2021/10/11 06:30:33;;;;;;;941.03;866.83;;;11.40;99.90;;;;;;5034888;28;20449;-86
2021/10/11 06:33:00;;;;;;;922.97;850.13;;;11.40;99.90;;;;;;5035487;28;20484;-89
2021/10/11 06:35:27;;;;;;;920.07;848.13;;;11.40;99.90;;;;;;5035383;28;20463;-87
2021/10/11 06:37:55;;;;;;;926.73;854.27;;;11.40;99.90;;;;;;5035871;28;20472;-87
2021/10/11 06:40:22;;;;;;;932.35;860.15;;;11.50;99.90;;;;;;5020471;28;20463;-87
2021/10/11 06:42:48;;;;;;;922.77;854.13;;;11.40;99.90;;;;;;5015681;28;20466;-87
2021/10/11 06:45:17;;;;;;;918.20;849.63;;;11.40;99.90;;;;;;5014368;28;20532;-86
2021/10/11 06:47:43;;;;;;;918.57;850.63;;;11.40;99.90;;;;;;5015431;28;20539;-88
2021/10/11 06:50:10;;;;;;;922.10;855.60;;;11.40;99.90;;;;;;5015496;28;20478;-88
2021/10/11 06:52:37;;;;;;;918.93;852.10;;;11.40;99.90;;;;;;5015255;28;20496;-87
2021/10/11 06:55:05;;;;;;;920.00;850.70;;;11.40;99.90;;;;;;5015536;28;20807;-88
2021/10/11 06:57:32;;;;;;;915.83;847.27;;;11.40;99.90;;;;;;5015178;28;20477;-86
2021/10/11 06:59:58;;;;;;;916.93;848.90;;;11.40;99.90;;;;;;5014145;28;20548;-88
2021/10/11 07:02:27;;;;;;;907.00;839.30;;;11.40;99.90;;;;;;5015277;28;20559;-88
2021/10/11 07:04:57;;;;;;;915.10;847.47;;;11.30;99.90;;;;;;5015504;28;20867;-87
2021/10/11 07:07:28;;;;;;;898.00;831.10;;;11.20;99.90;;;;;;5014103;28;20457;-82
2021/10/11 07:09:55;;;;;;;910.63;844.00;;;11.30;99.90;;;;;;5015191;28;20468;-82
2021/10/11 07:12:21;;;;;;;904.93;838.43;;;11.20;99.90;;;;;;5015101;28;20843;-81
2021/10/11 07:14:50;;;;;;;907.67;840.53;;;11.20;99.90;;;;;;5013832;28;20496;-82
2021/10/11 07:17:17;;;;;;;904.73;836.40;;;11.10;99.90;;;;;;5015084;28;20457;-82
2021/10/11 07:19:46;;;;;;;897.37;829.60;;;11.20;99.90;;;;;;5014886;28;20527;-83
2021/10/11 07:22:14;;;;;;;891.50;822.40;;;11.40;99.90;;;;;;5014920;28;20547;-83
2021/10/11 07:24:41;;;;;;;898.40;826.40;;;11.30;99.90;;;;;;5014882;28;20460;-82
2021/10/11 07:27:08;;;;;;;883.40;812.90;;;11.30;99.90;;;;;;5015084;28;20488;-83
2021/10/11 07:29:36;;;;;;;892.47;821.00;;;11.40;99.90;;;;;;5013614;28;20456;-85
2021/10/11 07:32:06;;;;;;;885.67;815.60;;;11.60;99.90;;;;;;5014701;28;20983;-81
2021/10/11 07:34:33;;;;;;;870.30;801.83;;;11.70;99.90;;;;;;5014602;28;20480;-82
2021/10/11 07:37:02;;;;;;;882.03;813.33;;;11.70;99.90;;;;;;5014691;28;20551;-84
2021/10/11 07:39:29;;;;;;;862.80;797.13;;;12.00;99.90;;;;;;5014655;28;20971;-84
2021/10/11 07:41:58;;;;;;;858.40;798.17;;;12.10;99.90;;;;;;5014647;28;20561;-82
2021/10/11 07:44:25;;;;;;;832.10;780.10;;;12.10;99.90;;;;;;5013787;28;20894;-80
2021/10/11 07:46:54;;;;;;;829.20;778.73;;;12.20;99.90;;;;;;5014380;28;20518;-85
2021/10/11 07:49:21;;;;;;;776.93;731.67;;;12.30;99.90;;;;;;5014364;28;20476;-84
2021/10/11 07:51:48;;;;;;;759.53;715.87;;;12.30;99.90;;;;;;5014427;28;20457;-82
2021/10/11 07:54:18;;;;;;;593.27;564.43;;;12.60;99.90;;;;;;5014721;28;20481;-81
2021/10/11 07:56:45;;;;;;;382.10;365.00;;;12.50;99.90;;;;;;5014295;28;20511;-82
2021/10/11 07:59:12;;;;;;;344.87;329.63;;;12.50;99.90;;;;;;5014265;28;20552;-84
2021/10/11 08:01:39;;;;;;;268.23;256.77;;;12.60;99.90;;;;;;5013059;28;20552;-82
2021/10/11 08:04:06;;;;;;;301.67;289.20;;;12.70;99.90;;;;;;5014083;28;20467;-82
2021/10/11 08:06:34;;;;;;;202.10;193.23;;;12.80;99.90;;;;;;5014141;28;20548;-81
2021/10/11 08:09:01;;;;;;;118.67;112.17;;;12.80;99.90;;;;;;5014142;28;20484;-82
2021/10/11 08:11:29;;;;;;;98.47;93.57;;;12.70;99.90;;;;;;5014119;28;20459;-81
2021/10/11 08:13:57;;;;;;;131.57;125.20;;;12.80;99.90;;;;;;5013867;28;20495;-81
2021/10/11 08:16:23;;;;;;;82.77;77.77;;;12.90;99.90;;;;;;5012651;28;20524;-81
2021/10/11 08:18:50;;;;;;;72.87;68.97;;;12.90;99.90;;;;;;5013576;28;20465;-84
2021/10/11 08:21:17;;;;;;;53.90;50.80;;;13.00;99.90;;;;;;5014044;28;20544;-83
2021/10/11 08:23:44;;;;;;;52.63;48.80;;;13.10;99.90;;;;;;5013987;28;20523;-81
2021/10/11 08:26:11;;;;;;;113.23;107.57;;;13.10;99.90;;;;;;5013768;28;20536;-82
2021/10/11 08:28:40;;;;;;;38.30;35.43;;;13.40;99.90;;;;;;5013593;28;20482;-83
2021/10/11 08:31:07;;;;;;;33.77;30.90;;;13.50;99.90;;;;;;5012256;28;20508;-83
2021/10/11 08:33:34;;;;;;;21.37;19.23;;;13.60;99.90;;;;;;5013733;28;20481;-82
2021/10/11 08:36:01;;;;;;;20.70;16.53;;;13.70;99.90;;;;;;5013800;28;20461;-85
2021/10/11 08:38:28;;;;;;;14.63;11.67;;;13.60;99.00;;;;;;5013734;28;20944;-84
2021/10/11 08:40:56;;;;;;;14.10;10.97;;;13.70;96.90;;;;;;5013758;28;20917;-85
2021/10/11 08:43:23;;;;;;;13.13;6.53;;;13.90;96.50;;;;;;5013341;28;20457;-85
2021/10/11 08:45:51;;;;;;;13.37;6.77;;;14.00;91.60;;;;;;5012314;28;20933;-84
2021/10/11 08:48:19;;;;;;;15.53;8.20;;;14.10;91.00;;;;;;5013718;28;20536;-83
2021/10/11 08:50:46;;;;;;;15.50;6.13;;;14.20;92.70;;;;;;5013455;28;20511;-84
2021/10/11 08:53:14;;;;;;;20.77;6.77;;;14.20;90.80;;;;;;5013418;28;20573;-82
2021/10/11 08:55:41;;;;;;;13.03;5.53;;;14.30;92.20;;;;;;5013166;28;20462;-83
2021/10/11 08:58:08;;;;;;;13.03;4.90;;;14.50;90.00;;;;;;5013733;28;20520;-84
2021/10/11 09:00:38;;;;;;;9.20;3.23;;;14.40;85.90;;;;;;5012116;28;20460;-83
2021/10/11 09:03:11;;;;;;;12.30;4.63;;;14.40;81.00;;;;;;5013155;28;20954;-83
2021/10/11 09:05:40;;;;;;;11.47;3.23;;;14.60;85.30;;;;;;5013247;28;20453;-83
2021/10/11 09:08:09;;;;;;;16.00;4.87;;;14.60;79.90;;;;;;5013414;28;20942;-83
2021/10/11 09:10:52;;;;;;;11.60;3.57;;;14.50;80.50;;;;;;5013218;28;20470;-84
2021/10/11 09:13:20;;;;;;;16.13;4.57;;;14.20;77.90;;;;;;5013051;28;20489;-82
2021/10/11 09:15:51;;;;;;;18.50;4.37;;;14.40;81.00;;;;;;5011888;28;20462;-82
2021/10/11 09:18:29;;;;;;;12.47;3.60;;;14.30;77.70;;;;;;5013063;28;20872;-83
2021/10/11 09:20:57;;;;;;;11.17;3.57;;;14.50;78.10;;;;;;5013068;28;20450;-82
2021/10/11 09:23:29;;;;;;;13.60;5.53;;;14.60;80.90;;;;;;5013137;28;20457;-84
2021/10/11 09:26:21;;;;;;;20.77;5.47;;;14.60;77.20;;;;;;5012826;28;20459;-85
2021/10/11 09:29:26;;;;;;;18.40;4.53;;;14.70;79.00;;;;;;5020722;28;20456;-88
2021/10/11 09:31:54;;;;;;;21.23;4.87;;;14.70;75.40;;;;;;5031608;28;20547;-88
2021/10/11 09:34:22;;;;;;;16.57;3.20;;;14.80;76.10;;;;;;5032584;28;21001;-90
2021/10/11 09:36:58;;;;;;;18.23;12.53;;;15.10;73.70;;;;;;5016685;28;20535;-89
2021/10/11 09:39:27;;;;;;;18.50;4.60;;;15.20;76.00;;;;;;5016586;28;20458;-89
2021/10/11 09:41:58;;;;;;;11.63;4.30;;;15.40;78.20;;;;;;5017058;28;20212;-90
2021/10/11 09:44:25;;;;;;;14.90;3.80;;;15.60;71.90;;;;;;5015985;28;20460;-87
2021/10/11 09:47:02;;;;;;;12.63;3.17;;;15.90;71.10;;;;;;5016677;28;20461;-87
2021/10/11 09:49:30;;;;;;;11.20;2.77;;;16.10;68.90;;;;;;5016739;28;20483;-87
2021/10/11 09:51:58;;;;;;;16.20;3.30;;;16.10;62.70;;;;;;5032936;28;20464;-88
2021/10/11 09:54:26;;;;;;;22.00;0.80;;;16.30;67.50;;;;;;5035629;28;20496;-87
2021/10/11 09:56:53;;;;;;;24.40;0.90;;;15.90;57.60;;;;;;5036126;28;20498;-90
2021/10/11 09:59:23;;;;;;;24.90;0.90;;;15.60;62.90;;;;;;5035243;28;20492;-89
2021/10/11 10:01:50;;;;;;;25.70;0.90;;;15.60;66.10;;;;;;5035476;28;20491;-88
2021/10/11 10:04:28;;;;;;;25.10;0.90;;;15.30;62.30;;;;;;5035023;28;20464;-89
2021/10/11 10:07:01;;;;;;;25.40;0.90;;;15.10;63.60;;;;;;5035194;28;20450;-86
2021/10/11 10:09:34;;;;;;;25.80;0.90;;;15.00;64.10;;;;;;5035697;28;20459;-85
2021/10/11 10:12:05;;;;;;;26.10;0.90;;;15.20;65.60;;;;;;5034985;28;20450;-85
2021/10/11 10:14:36;;;;;;;27.10;1.10;;;15.20;61.80;;;;;;5034901;28;20486;-85
2021/10/11 10:17:06;;;;;;;28.77;1.00;;;15.50;62.80;;;;;;5036143;28;20501;-87
2021/10/11 10:20:09;;;;;;;29.70;1.00;;;15.40;61.10;;;;;;5036194;28;20794;-85
2021/10/11 10:22:58;;;;;;;29.97;1.00;;;15.70;65.90;;;;;;5033711;28;20958;-88
2021/10/11 10:25:46;;;;;;;30.50;1.00;;;15.90;58.10;;;;;;5035925;28;20461;-86
2021/10/11 10:28:17;;;;;;;30.80;1.10;;;15.70;59.20;;;;;;5035521;28;20463;-85
2021/10/11 10:31:05;;;;;;;30.60;1.10;;;15.70;58.70;;;;;;5034593;28;20454;-84
2021/10/11 10:33:46;;;;;;;30.80;1.10;;;15.70;60.80;;;;;;5035453;28;20477;-86
2021/10/11 10:36:21;;;;;;;27.10;1.10;;;15.80;61.10;;;;;;5035519;28;20884;-85
2021/10/11 10:39:14;;;;;;;28.10;1.00;;;15.70;60.60;;;;;;5035415;28;20946;-87
2021/10/11 10:41:58;;;;;;;28.90;0.90;;;15.60;59.30;;;;;;5035293;28;20795;-85
2021/10/11 10:44:31;;;;;;;29.60;1.10;;;15.90;58.60;;;;;;5034672;28;20458;-87
2021/10/11 10:47:03;;;;;;;30.50;0.90;;;15.70;57.30;;;;;;5035488;28;20469;-85
2021/10/11 10:49:45;;;;;;;16.77;1.77;;;15.90;58.00;;;;;;5035319;28;20981;-86
2021/10/11 10:52:16;;;;;;;17.20;1.90;;;15.60;58.30;;;;;;5035242;28;21023;-85
2021/10/11 10:54:54;;;;;;;21.43;1.90;;;15.70;62.70;;;;;;5035004;28;20577;-85
2021/10/11 10:57:47;;;;;;;17.50;1.80;;;15.60;59.40;;;;;;5035149;28;20826;-85
2021/10/11 11:00:22;;;;;;;16.80;1.90;;;15.70;58.50;;;;;;5034187;28;20451;-86
2021/10/11 11:02:55;;;;;;;16.90;1.70;;;15.70;56.90;;;;;;5035109;28;21037;-86
2021/10/11 11:05:24;;;;;;;20.13;1.70;;;15.70;54.80;;;;;;5035265;28;20940;-87
2021/10/11 11:07:54;;;;;;;20.10;1.53;;;15.80;57.00;;;;;;5035063;28;20458;-87
2021/10/11 11:10:48;;;;;;;20.83;2.20;;;15.80;58.00;;;;;;5035121;28;20452;-87
2021/10/11 11:13:18;;;;;;;20.83;1.80;;;15.70;58.40;;;;;;5034728;28;20835;-86
2021/10/11 11:15:52;;;;;;;20.17;1.60;;;16.00;55.20;;;;;;5034043;28;20902;-87
2021/10/11 11:18:24;;;;;;;19.57;1.60;;;15.90;54.10;;;;;;5035169;28;20452;-87
2021/10/11 11:20:54;;;;;;;21.27;1.57;;;16.10;52.70;;;;;;5034806;28;20789;-85
2021/10/11 11:23:25;;;;;;;22.67;1.73;;;16.80;49.80;;;;;;5034831;28;20828;-85
2021/10/11 11:26:02;;;;;;;19.70;1.50;;;17.10;48.30;;;;;;5034605;28;20942;-85
2021/10/11 11:28:29;;;;;;;20.40;1.77;;;17.40;49.20;;;;;;5034576;28;20953;-86
2021/10/11 11:31:05;;;;;;;27.10;1.57;;;17.00;44.20;;;;;;5033612;28;20450;-87
2021/10/11 11:33:45;;;;;;;;;;;;;;;;;;;;;
2021/10/11 11:39:18;;;;;;;30.10;1.60;;;16.70;47.60;;;;;;5027397;28;20910;-86
2021/10/11 11:42:05;;;;;;;30.87;1.60;;;16.60;50.10;;;;;;5034619;28;20936;-88
2021/10/11 11:44:40;;;;;;;28.43;1.50;;;16.10;49.50;;;;;;5033347;28;20821;-87
2021/10/11 11:47:11;;;;;;;27.77;1.30;;;16.10;51.10;;;;;;5034259;28;20448;-85
2021/10/11 11:49:42;;;;;;;28.77;1.37;;;16.30;51.30;;;;;;5034310;28;20478;-86
2021/10/11 11:52:20;;;;;;;29.50;1.50;;;16.30;48.50;;;;;;5034058;28;20954;-85
2021/10/11 11:54:56;;;;;;;31.27;1.80;;;16.60;51.90;;;;;;5033342;28;21138;-87
2021/10/11 11:57:29;;;;;;;31.50;1.40;;;16.60;49.20;;;;;;5033820;28;20543;-87
2021/10/11 12:00:06;;;;;;;35.37;1.40;;;16.90;47.40;;;;;;5033008;28;20947;-87
2021/10/11 12:02:48;;;;;;;32.00;1.90;;;16.70;48.40;;;;;;5033956;28;20498;-89
2021/10/11 12:05:21;;;;;;;32.80;1.50;;;16.90;48.10;;;;;;5033888;28;20457;-85
2021/10/11 12:07:57;;;;;;;32.00;1.70;;;17.10;50.50;;;;;;5033871;28;20469;-86
2021/10/11 12:10:39;;;;;;;;;;;;;;;;;;;;;
2021/10/11 12:13:12;;;;;;;29.80;1.73;;;16.30;49.60;;;;;;5033844;28;20557;-85
2021/10/11 12:15:47;;;;;;;37.67;1.90;;;16.10;51.50;;;;;;5032707;28;20902;-86
2021/10/11 12:18:15;;;;;;;37.33;1.83;;;15.80;51.90;;;;;;5033538;28;20448;-85
2021/10/11 12:20:56;;;;;;;38.10;1.87;;;15.90;54.00;;;;;;5032995;28;21091;-85
2021/10/11 12:23:41;;;;;;;32.13;1.60;;;16.50;55.40;;;;;;5033118;28;20478;-86
2021/10/11 12:26:19;;;;;;;34.93;2.03;;;17.40;50.80;;;;;;5033876;28;20461;-85
2021/10/11 12:39:47;;;;;;;27.83;1.43;;;18.80;41.30;;;;;;4771268;29;20524;-86
2021/10/11 12:42:30;;;;;;;28.03;1.43;;;19.50;32.00;;;;;;4829754;29;20469;-86
2021/10/11 12:45:02;;;;;;;27.40;1.37;;;19.50;31.80;;;;;;4857727;29;20527;-86
2021/10/11 12:47:32;;;;;;;26.73;1.43;;;19.10;38.10;;;;;;5026371;28;20819;-85
2021/10/11 12:50:10;;;;;;;28.17;1.57;;;19.00;38.20;;;;;;5033288;28;20549;-86
2021/10/11 12:52:42;;;;;;;16.03;1.63;;;18.60;36.00;;;;;;5033144;28;20456;-84
2021/10/11 12:55:23;;;;;;;15.80;1.37;;;18.20;39.80;;;;;;5032984;28;20517;-86
2021/10/11 12:58:20;;;;;;;16.20;1.30;;;18.00;43.70;;;;;;5032945;28;20501;-87